sensor_id;sensor_type;location;lat;lon;timestamp;P1;durP1;ratioP1;P2;durP2;ratioP2
9997;SDS011;5038;53.064;8.624;2023-02-03T00:01:19;18.43;;;15.73;;
9997;SDS011;5038;53.064;8.624;2023-02-03T00:03:48;16.83;;;14.63;;
9997;SDS011;5038;53.064;8.624;2023-02-03T00:06:17;16.70;;;14.87;;
9997;SDS011;5038;53.064;8.624;2023-02-03T00:08:45;18.50;;;15.30;;
9997;SDS011;5038;53.064;8.624;2023-02-03T00:11:14;18.70;;;14.90;;
9997;SDS011;5038;53.064;8.624;2023-02-03T00:13:42;17.93;;;15.20;;
9997;SDS011;5038;53.064;8.624;2023-02-03T00:16:10;19.03;;;13.77;;
9997;SDS011;5038;53.064;8.624;2023-02-03T00:18:38;21.00;;;13.90;;
9997;SDS011;5038;53.064;8.624;2023-02-03T00:21:06;17.20;;;12.97;;
9997;SDS011;5038;53.064;8.624;2023-02-03T00:23:36;14.70;;;12.77;;
9997;SDS011;5038;53.064;8.624;2023-02-03T00:26:07;14.20;;;12.70;;
9997;SDS011;5038;53.064;8.624;2023-02-03T00:28:37;15.20;;;11.27;;
9997;SDS011;5038;53.064;8.624;2023-02-03T00:31:05;15.33;;;11.63;;
9997;SDS011;5038;53.064;8.624;2023-02-03T00:33:40;17.30;;;12.50;;
9997;SDS011;5038;53.064;8.624;2023-02-03T00:36:09;14.37;;;11.93;;
9997;SDS011;5038;53.064;8.624;2023-02-03T00:38:39;16.60;;;12.40;;
9997;SDS011;5038;53.064;8.624;2023-02-03T00:41:08;11.83;;;10.40;;
9997;SDS011;5038;53.064;8.624;2023-02-03T00:43:36;14.63;;;11.37;;
9997;SDS011;5038;53.064;8.624;2023-02-03T00:46:04;12.30;;;11.00;;
9997;SDS011;5038;53.064;8.624;2023-02-03T00:48:33;11.83;;;10.67;;
9997;SDS011;5038;53.064;8.624;2023-02-03T00:51:01;14.40;;;10.00;;
9997;SDS011;5038;53.064;8.624;2023-02-03T00:53:30;11.77;;;9.10;;
9997;SDS011;5038;53.064;8.624;2023-02-03T00:56:01;10.80;;;8.20;;
9997;SDS011;5038;53.064;8.624;2023-02-03T00:58:29;11.10;;;9.00;;
9997;SDS011;5038;53.064;8.624;2023-02-03T01:00:57;12.80;;;8.87;;
9997;SDS011;5038;53.064;8.624;2023-02-03T01:03:25;12.90;;;8.40;;
9997;SDS011;5038;53.064;8.624;2023-02-03T01:05:53;12.17;;;8.70;;
9997;SDS011;5038;53.064;8.624;2023-02-03T01:08:21;10.80;;;8.50;;
9997;SDS011;5038;53.064;8.624;2023-02-03T01:10:49;10.03;;;7.30;;
9997;SDS011;5038;53.064;8.624;2023-02-03T01:13:18;10.10;;;7.33;;
9997;SDS011;5038;53.064;8.624;2023-02-03T01:15:47;12.20;;;7.37;;
9997;SDS011;5038;53.064;8.624;2023-02-03T01:18:15;11.20;;;7.03;;
9997;SDS011;5038;53.064;8.624;2023-02-03T01:20:43;11.73;;;6.90;;
9997;SDS011;5038;53.064;8.624;2023-02-03T01:23:11;12.80;;;7.83;;
9997;SDS011;5038;53.064;8.624;2023-02-03T01:25:39;10.53;;;6.87;;
9997;SDS011;5038;53.064;8.624;2023-02-03T01:28:07;8.97;;;6.40;;
9997;SDS011;5038;53.064;8.624;2023-02-03T01:30:36;10.30;;;6.03;;
9997;SDS011;5038;53.064;8.624;2023-02-03T01:33:05;11.10;;;6.43;;
9997;SDS011;5038;53.064;8.624;2023-02-03T01:35:33;13.40;;;7.13;;
9997;SDS011;5038;53.064;8.624;2023-02-03T01:38:01;11.73;;;6.43;;
9997;SDS011;5038;53.064;8.624;2023-02-03T01:40:30;10.60;;;7.07;;
9997;SDS011;5038;53.064;8.624;2023-02-03T01:42:58;9.20;;;7.73;;
9997;SDS011;5038;53.064;8.624;2023-02-03T01:45:26;9.50;;;7.43;;
9997;SDS011;5038;53.064;8.624;2023-02-03T01:47:56;11.00;;;7.60;;
9997;SDS011;5038;53.064;8.624;2023-02-03T01:50:26;9.00;;;7.47;;
9997;SDS011;5038;53.064;8.624;2023-02-03T01:52:58;9.27;;;7.73;;
9997;SDS011;5038;53.064;8.624;2023-02-03T01:55:30;10.17;;;8.37;;
9997;SDS011;5038;53.064;8.624;2023-02-03T01:58:02;10.30;;;7.57;;
9997;SDS011;5038;53.064;8.624;2023-02-03T02:00:33;12.97;;;8.80;;
9997;SDS011;5038;53.064;8.624;2023-02-03T02:03:03;13.90;;;9.20;;
9997;SDS011;5038;53.064;8.624;2023-02-03T02:05:33;10.50;;;8.37;;
9997;SDS011;5038;53.064;8.624;2023-02-03T02:08:05;11.07;;;8.43;;
9997;SDS011;5038;53.064;8.624;2023-02-03T02:10:35;10.70;;;9.03;;
9997;SDS011;5038;53.064;8.624;2023-02-03T02:13:03;10.70;;;8.40;;
9997;SDS011;5038;53.064;8.624;2023-02-03T02:15:35;10.10;;;8.13;;
9997;SDS011;5038;53.064;8.624;2023-02-03T02:18:17;11.73;;;8.13;;
9997;SDS011;5038;53.064;8.624;2023-02-03T02:23:58;13.67;;;8.60;;
9997;SDS011;5038;53.064;8.624;2023-02-03T02:27:04;12.23;;;7.47;;
9997;SDS011;5038;53.064;8.624;2023-02-03T02:32:44;9.67;;;6.87;;
9997;SDS011;5038;53.064;8.624;2023-02-03T02:35:23;9.03;;;6.33;;
9997;SDS011;5038;53.064;8.624;2023-02-03T02:38:01;7.77;;;6.37;;
9997;SDS011;5038;53.064;8.624;2023-02-03T02:40:32;9.50;;;6.27;;
9997;SDS011;5038;53.064;8.624;2023-02-03T02:43:07;8.00;;;6.17;;
9997;SDS011;5038;53.064;8.624;2023-02-03T02:45:43;8.47;;;6.30;;
9997;SDS011;5038;53.064;8.624;2023-02-03T02:48:16;8.10;;;5.60;;
9997;SDS011;5038;53.064;8.624;2023-02-03T02:50:50;9.33;;;5.77;;
9997;SDS011;5038;53.064;8.624;2023-02-03T02:53:22;10.90;;;5.93;;
9997;SDS011;5038;53.064;8.624;2023-02-03T02:55:55;8.90;;;5.63;;
9997;SDS011;5038;53.064;8.624;2023-02-03T02:58:25;7.40;;;5.17;;
9997;SDS011;5038;53.064;8.624;2023-02-03T03:00:55;9.60;;;5.17;;
9997;SDS011;5038;53.064;8.624;2023-02-03T03:03:25;8.07;;;5.20;;
9997;SDS011;5038;53.064;8.624;2023-02-03T03:05:55;7.57;;;5.53;;
9997;SDS011;5038;53.064;8.624;2023-02-03T03:08:31;6.67;;;5.60;;
9997;SDS011;5038;53.064;8.624;2023-02-03T03:11:05;9.60;;;5.50;;
9997;SDS011;5038;53.064;8.624;2023-02-03T03:13:34;10.30;;;5.63;;
9997;SDS011;5038;53.064;8.624;2023-02-03T03:16:05;7.90;;;5.10;;
9997;SDS011;5038;53.064;8.624;2023-02-03T03:18:39;10.67;;;6.00;;
9997;SDS011;5038;53.064;8.624;2023-02-03T03:21:12;9.70;;;5.47;;
9997;SDS011;5038;53.064;8.624;2023-02-03T03:23:43;10.03;;;6.47;;
9997;SDS011;5038;53.064;8.624;2023-02-03T03:26:17;11.47;;;6.10;;
9997;SDS011;5038;53.064;8.624;2023-02-03T03:28:50;8.77;;;5.50;;
9997;SDS011;5038;53.064;8.624;2023-02-03T03:31:24;9.80;;;6.00;;
9997;SDS011;5038;53.064;8.624;2023-02-03T03:33:54;13.30;;;6.47;;
9997;SDS011;5038;53.064;8.624;2023-02-03T03:36:23;10.27;;;6.57;;
9997;SDS011;5038;53.064;8.624;2023-02-03T03:38:55;10.33;;;6.20;;
9997;SDS011;5038;53.064;8.624;2023-02-03T03:41:30;8.80;;;5.80;;
9997;SDS011;5038;53.064;8.624;2023-02-03T03:44:08;10.00;;;6.50;;
9997;SDS011;5038;53.064;8.624;2023-02-03T03:46:39;14.50;;;6.97;;
9997;SDS011;5038;53.064;8.624;2023-02-03T03:49:12;9.37;;;6.07;;
9997;SDS011;5038;53.064;8.624;2023-02-03T03:51:43;10.10;;;6.30;;
9997;SDS011;5038;53.064;8.624;2023-02-03T03:54:15;10.60;;;5.50;;
9997;SDS011;5038;53.064;8.624;2023-02-03T03:56:48;8.50;;;6.50;;
9997;SDS011;5038;53.064;8.624;2023-02-03T03:59:20;8.83;;;6.73;;
9997;SDS011;5038;53.064;8.624;2023-02-03T04:01:50;10.50;;;6.87;;
9997;SDS011;5038;53.064;8.624;2023-02-03T04:04:20;10.93;;;6.90;;
9997;SDS011;5038;53.064;8.624;2023-02-03T04:06:52;14.03;;;7.30;;
9997;SDS011;5038;53.064;8.624;2023-02-03T04:09:20;9.10;;;6.80;;
9997;SDS011;5038;53.064;8.624;2023-02-03T04:11:49;11.60;;;7.70;;
9997;SDS011;5038;53.064;8.624;2023-02-03T04:14:32;10.57;;;6.97;;
9997;SDS011;5038;53.064;8.624;2023-02-03T04:17:01;13.33;;;7.20;;
9997;SDS011;5038;53.064;8.624;2023-02-03T04:19:30;14.27;;;7.53;;
9997;SDS011;5038;53.064;8.624;2023-02-03T04:21:58;12.67;;;7.93;;
9997;SDS011;5038;53.064;8.624;2023-02-03T04:24:27;13.83;;;8.10;;
9997;SDS011;5038;53.064;8.624;2023-02-03T04:26:55;9.40;;;7.50;;
9997;SDS011;5038;53.064;8.624;2023-02-03T04:29:23;9.20;;;6.57;;
9997;SDS011;5038;53.064;8.624;2023-02-03T04:31:51;10.27;;;6.70;;
9997;SDS011;5038;53.064;8.624;2023-02-03T04:34:19;13.47;;;6.90;;
9997;SDS011;5038;53.064;8.624;2023-02-03T04:36:48;13.63;;;7.30;;
9997;SDS011;5038;53.064;8.624;2023-02-03T04:39:16;10.80;;;6.50;;
9997;SDS011;5038;53.064;8.624;2023-02-03T04:41:45;10.30;;;5.90;;
9997;SDS011;5038;53.064;8.624;2023-02-03T04:44:13;9.37;;;6.13;;
9997;SDS011;5038;53.064;8.624;2023-02-03T04:46:41;13.67;;;7.07;;
9997;SDS011;5038;53.064;8.624;2023-02-03T04:49:09;12.17;;;6.40;;
9997;SDS011;5038;53.064;8.624;2023-02-03T04:51:37;11.57;;;6.43;;
9997;SDS011;5038;53.064;8.624;2023-02-03T04:54:06;8.90;;;6.50;;
9997;SDS011;5038;53.064;8.624;2023-02-03T04:56:35;12.40;;;6.40;;
9997;SDS011;5038;53.064;8.624;2023-02-03T04:59:03;10.33;;;5.70;;
9997;SDS011;5038;53.064;8.624;2023-02-03T05:01:31;10.17;;;6.13;;
9997;SDS011;5038;53.064;8.624;2023-02-03T05:04:00;9.50;;;5.07;;
9997;SDS011;5038;53.064;8.624;2023-02-03T05:06:28;10.77;;;5.90;;
9997;SDS011;5038;53.064;8.624;2023-02-03T05:08:57;9.63;;;5.50;;
9997;SDS011;5038;53.064;8.624;2023-02-03T05:11:27;10.87;;;5.93;;
9997;SDS011;5038;53.064;8.624;2023-02-03T05:13:55;8.30;;;5.30;;
9997;SDS011;5038;53.064;8.624;2023-02-03T05:16:24;11.03;;;6.10;;
9997;SDS011;5038;53.064;8.624;2023-02-03T05:18:52;8.80;;;5.50;;
9997;SDS011;5038;53.064;8.624;2023-02-03T05:21:20;14.20;;;6.03;;
9997;SDS011;5038;53.064;8.624;2023-02-03T05:23:48;10.40;;;6.10;;
9997;SDS011;5038;53.064;8.624;2023-02-03T05:26:16;12.20;;;5.90;;
9997;SDS011;5038;53.064;8.624;2023-02-03T05:28:45;9.90;;;5.40;;
9997;SDS011;5038;53.064;8.624;2023-02-03T05:31:13;8.33;;;5.50;;
9997;SDS011;5038;53.064;8.624;2023-02-03T05:33:41;14.60;;;6.37;;
9997;SDS011;5038;53.064;8.624;2023-02-03T05:36:10;8.13;;;6.00;;
9997;SDS011;5038;53.064;8.624;2023-02-03T05:38:38;9.07;;;5.50;;
9997;SDS011;5038;53.064;8.624;2023-02-03T05:41:08;9.53;;;5.43;;
9997;SDS011;5038;53.064;8.624;2023-02-03T05:43:55;9.37;;;5.57;;
9997;SDS011;5038;53.064;8.624;2023-02-03T05:46:23;9.37;;;6.00;;
9997;SDS011;5038;53.064;8.624;2023-02-03T05:48:52;9.40;;;5.63;;
9997;SDS011;5038;53.064;8.624;2023-02-03T05:51:20;8.20;;;5.30;;
9997;SDS011;5038;53.064;8.624;2023-02-03T05:53:48;15.37;;;5.40;;
9997;SDS011;5038;53.064;8.624;2023-02-03T05:56:16;10.20;;;5.43;;
9997;SDS011;5038;53.064;8.624;2023-02-03T05:58:44;10.83;;;5.43;;
9997;SDS011;5038;53.064;8.624;2023-02-03T06:01:13;10.53;;;5.60;;
9997;SDS011;5038;53.064;8.624;2023-02-03T06:03:41;12.17;;;6.17;;
9997;SDS011;5038;53.064;8.624;2023-02-03T06:06:11;7.73;;;5.20;;
9997;SDS011;5038;53.064;8.624;2023-02-03T06:08:40;11.17;;;5.90;;
9997;SDS011;5038;53.064;8.624;2023-02-03T06:11:08;13.60;;;6.60;;
9997;SDS011;5038;53.064;8.624;2023-02-03T06:13:37;8.57;;;6.13;;
9997;SDS011;5038;53.064;8.624;2023-02-03T06:16:05;9.20;;;6.40;;
9997;SDS011;5038;53.064;8.624;2023-02-03T06:18:34;13.70;;;6.73;;
9997;SDS011;5038;53.064;8.624;2023-02-03T06:21:03;12.30;;;6.20;;
9997;SDS011;5038;53.064;8.624;2023-02-03T06:23:31;13.30;;;7.30;;
9997;SDS011;5038;53.064;8.624;2023-02-03T06:25:59;13.20;;;6.30;;
9997;SDS011;5038;53.064;8.624;2023-02-03T06:28:27;9.83;;;7.23;;
9997;SDS011;5038;53.064;8.624;2023-02-03T06:30:55;11.50;;;7.77;;
9997;SDS011;5038;53.064;8.624;2023-02-03T06:33:23;10.90;;;6.83;;
9997;SDS011;5038;53.064;8.624;2023-02-03T06:35:53;11.52;;;7.20;;
9997;SDS011;5038;53.064;8.624;2023-02-03T06:38:21;10.40;;;6.37;;
9997;SDS011;5038;53.064;8.624;2023-02-03T06:40:50;10.60;;;6.27;;
9997;SDS011;5038;53.064;8.624;2023-02-03T06:43:18;11.17;;;6.50;;
9997;SDS011;5038;53.064;8.624;2023-02-03T06:45:46;13.13;;;6.73;;
9997;SDS011;5038;53.064;8.624;2023-02-03T06:48:14;11.10;;;6.53;;
9997;SDS011;5038;53.064;8.624;2023-02-03T06:50:43;11.97;;;6.50;;
9997;SDS011;5038;53.064;8.624;2023-02-03T06:53:15;9.40;;;5.23;;
9997;SDS011;5038;53.064;8.624;2023-02-03T06:55:43;10.17;;;5.00;;
9997;SDS011;5038;53.064;8.624;2023-02-03T06:58:13;10.33;;;5.70;;
9997;SDS011;5038;53.064;8.624;2023-02-03T07:00:41;11.37;;;6.03;;
9997;SDS011;5038;53.064;8.624;2023-02-03T07:03:09;10.10;;;5.47;;
9997;SDS011;5038;53.064;8.624;2023-02-03T07:05:37;10.70;;;5.43;;
9997;SDS011;5038;53.064;8.624;2023-02-03T07:08:06;8.30;;;5.20;;
9997;SDS011;5038;53.064;8.624;2023-02-03T07:10:35;9.07;;;5.60;;
9997;SDS011;5038;53.064;8.624;2023-02-03T07:13:04;10.77;;;4.93;;
9997;SDS011;5038;53.064;8.624;2023-02-03T07:15:32;12.33;;;5.70;;
9997;SDS011;5038;53.064;8.624;2023-02-03T07:18:01;12.27;;;5.20;;
9997;SDS011;5038;53.064;8.624;2023-02-03T07:20:32;8.47;;;4.93;;
9997;SDS011;5038;53.064;8.624;2023-02-03T07:23:00;12.00;;;5.53;;
9997;SDS011;5038;53.064;8.624;2023-02-03T07:25:28;12.13;;;5.33;;
9997;SDS011;5038;53.064;8.624;2023-02-03T07:27:59;8.63;;;4.40;;
9997;SDS011;5038;53.064;8.624;2023-02-03T07:30:27;8.73;;;4.70;;
9997;SDS011;5038;53.064;8.624;2023-02-03T07:32:56;11.17;;;5.03;;
9997;SDS011;5038;53.064;8.624;2023-02-03T07:35:24;13.00;;;5.70;;
9997;SDS011;5038;53.064;8.624;2023-02-03T07:37:52;10.40;;;4.83;;
9997;SDS011;5038;53.064;8.624;2023-02-03T07:40:20;8.40;;;4.67;;
9997;SDS011;5038;53.064;8.624;2023-02-03T07:42:48;9.37;;;5.13;;
9997;SDS011;5038;53.064;8.624;2023-02-03T07:45:18;9.13;;;4.90;;
9997;SDS011;5038;53.064;8.624;2023-02-03T07:47:47;10.00;;;4.67;;
9997;SDS011;5038;53.064;8.624;2023-02-03T07:50:15;11.97;;;4.70;;
9997;SDS011;5038;53.064;8.624;2023-02-03T07:52:43;13.50;;;4.83;;
9997;SDS011;5038;53.064;8.624;2023-02-03T07:55:11;10.03;;;4.33;;
9997;SDS011;5038;53.064;8.624;2023-02-03T07:57:39;10.20;;;4.73;;
9997;SDS011;5038;53.064;8.624;2023-02-03T08:00:10;12.90;;;4.83;;
9997;SDS011;5038;53.064;8.624;2023-02-03T08:02:41;9.37;;;4.57;;
9997;SDS011;5038;53.064;8.624;2023-02-03T08:05:10;9.00;;;4.87;;
9997;SDS011;5038;53.064;8.624;2023-02-03T08:07:38;12.17;;;5.00;;
9997;SDS011;5038;53.064;8.624;2023-02-03T08:10:08;11.80;;;5.13;;
9997;SDS011;5038;53.064;8.624;2023-02-03T08:12:36;12.60;;;5.13;;
9997;SDS011;5038;53.064;8.624;2023-02-03T08:15:05;10.87;;;4.90;;
9997;SDS011;5038;53.064;8.624;2023-02-03T08:17:34;16.67;;;5.17;;
9997;SDS011;5038;53.064;8.624;2023-02-03T08:20:04;11.00;;;4.50;;
9997;SDS011;5038;53.064;8.624;2023-02-03T08:22:32;10.47;;;4.80;;
9997;SDS011;5038;53.064;8.624;2023-02-03T08:25:00;13.20;;;4.67;;
9997;SDS011;5038;53.064;8.624;2023-02-03T08:27:30;9.73;;;5.00;;
9997;SDS011;5038;53.064;8.624;2023-02-03T08:29:59;10.73;;;5.33;;
9997;SDS011;5038;53.064;8.624;2023-02-03T08:32:27;12.30;;;5.40;;
9997;SDS011;5038;53.064;8.624;2023-02-03T08:34:55;12.03;;;4.47;;
9997;SDS011;5038;53.064;8.624;2023-02-03T08:37:24;9.67;;;4.03;;
9997;SDS011;5038;53.064;8.624;2023-02-03T08:39:53;10.80;;;4.13;;
9997;SDS011;5038;53.064;8.624;2023-02-03T08:42:21;10.87;;;3.90;;
9997;SDS011;5038;53.064;8.624;2023-02-03T08:44:49;14.73;;;4.80;;
9997;SDS011;5038;53.064;8.624;2023-02-03T08:47:18;13.67;;;4.93;;
9997;SDS011;5038;53.064;8.624;2023-02-03T08:49:46;13.80;;;4.87;;
9997;SDS011;5038;53.064;8.624;2023-02-03T08:52:14;10.90;;;5.00;;
9997;SDS011;5038;53.064;8.624;2023-02-03T08:54:46;16.27;;;6.20;;
9997;SDS011;5038;53.064;8.624;2023-02-03T08:57:14;16.53;;;4.77;;
9997;SDS011;5038;53.064;8.624;2023-02-03T08:59:42;16.17;;;5.23;;
9997;SDS011;5038;53.064;8.624;2023-02-03T09:02:12;19.20;;;6.70;;
9997;SDS011;5038;53.064;8.624;2023-02-03T09:04:43;15.27;;;5.90;;
9997;SDS011;5038;53.064;8.624;2023-02-03T09:07:12;16.90;;;5.87;;
9997;SDS011;5038;53.064;8.624;2023-02-03T09:09:42;16.17;;;5.90;;
9997;SDS011;5038;53.064;8.624;2023-02-03T09:12:11;18.63;;;6.00;;
9997;SDS011;5038;53.064;8.624;2023-02-03T09:14:39;15.13;;;4.50;;
9997;SDS011;5038;53.064;8.624;2023-02-03T09:17:08;12.63;;;4.30;;
9997;SDS011;5038;53.064;8.624;2023-02-03T09:19:37;13.50;;;3.70;;
9997;SDS011;5038;53.064;8.624;2023-02-03T09:22:06;16.10;;;4.73;;
9997;SDS011;5038;53.064;8.624;2023-02-03T09:24:34;15.03;;;4.00;;
9997;SDS011;5038;53.064;8.624;2023-02-03T09:27:03;11.80;;;4.33;;
9997;SDS011;5038;53.064;8.624;2023-02-03T09:29:32;10.50;;;4.20;;
9997;SDS011;5038;53.064;8.624;2023-02-03T09:32:00;9.57;;;3.97;;
9997;SDS011;5038;53.064;8.624;2023-02-03T09:34:33;14.80;;;4.37;;
9997;SDS011;5038;53.064;8.624;2023-02-03T09:37:01;15.60;;;3.87;;
9997;SDS011;5038;53.064;8.624;2023-02-03T09:39:30;13.53;;;4.27;;
9997;SDS011;5038;53.064;8.624;2023-02-03T09:42:08;14.10;;;4.67;;
9997;SDS011;5038;53.064;8.624;2023-02-03T09:45:07;18.57;;;4.80;;
9997;SDS011;5038;53.064;8.624;2023-02-03T09:47:44;17.33;;;5.17;;
9997;SDS011;5038;53.064;8.624;2023-02-03T09:50:19;17.87;;;6.40;;
9997;SDS011;5038;53.064;8.624;2023-02-03T09:52:50;17.97;;;5.23;;
9997;SDS011;5038;53.064;8.624;2023-02-03T09:55:23;18.90;;;5.30;;
9997;SDS011;5038;53.064;8.624;2023-02-03T09:57:55;16.80;;;5.40;;
9997;SDS011;5038;53.064;8.624;2023-02-03T10:00:32;16.07;;;5.87;;
9997;SDS011;5038;53.064;8.624;2023-02-03T10:03:05;19.30;;;5.80;;
9997;SDS011;5038;53.064;8.624;2023-02-03T10:05:41;24.63;;;6.90;;
9997;SDS011;5038;53.064;8.624;2023-02-03T10:08:22;20.07;;;5.40;;
9997;SDS011;5038;53.064;8.624;2023-02-03T10:11:00;13.80;;;5.40;;
9997;SDS011;5038;53.064;8.624;2023-02-03T10:13:39;19.13;;;6.83;;
9997;SDS011;5038;53.064;8.624;2023-02-03T10:16:30;22.00;;;6.90;;
9997;SDS011;5038;53.064;8.624;2023-02-03T10:19:19;20.37;;;6.90;;
9997;SDS011;5038;53.064;8.624;2023-02-03T10:21:53;19.87;;;6.60;;
9997;SDS011;5038;53.064;8.624;2023-02-03T10:24:25;21.77;;;6.47;;
9997;SDS011;5038;53.064;8.624;2023-02-03T10:27:08;21.60;;;6.87;;
9997;SDS011;5038;53.064;8.624;2023-02-03T10:29:43;20.57;;;6.23;;
9997;SDS011;5038;53.064;8.624;2023-02-03T10:32:16;23.93;;;6.90;;
9997;SDS011;5038;53.064;8.624;2023-02-03T10:34:46;23.00;;;6.83;;
9997;SDS011;5038;53.064;8.624;2023-02-03T10:37:17;21.40;;;7.03;;
9997;SDS011;5038;53.064;8.624;2023-02-03T10:39:55;18.43;;;7.20;;
9997;SDS011;5038;53.064;8.624;2023-02-03T10:42:24;25.00;;;7.30;;
9997;SDS011;5038;53.064;8.624;2023-02-03T10:45:14;28.43;;;8.00;;
9997;SDS011;5038;53.064;8.624;2023-02-03T10:47:44;19.10;;;5.70;;
9997;SDS011;5038;53.064;8.624;2023-02-03T10:50:18;20.90;;;6.53;;
9997;SDS011;5038;53.064;8.624;2023-02-03T10:52:47;23.73;;;6.73;;
9997;SDS011;5038;53.064;8.624;2023-02-03T10:55:29;28.23;;;7.50;;
9997;SDS011;5038;53.064;8.624;2023-02-03T10:57:57;23.20;;;6.10;;
9997;SDS011;5038;53.064;8.624;2023-02-03T11:00:37;24.60;;;7.13;;
9997;SDS011;5038;53.064;8.624;2023-02-03T11:03:15;20.80;;;6.30;;
9997;SDS011;5038;53.064;8.624;2023-02-03T11:06:01;14.73;;;5.30;;
9997;SDS011;5038;53.064;8.624;2023-02-03T11:08:32;24.40;;;6.30;;
9997;SDS011;5038;53.064;8.624;2023-02-03T11:11:01;22.90;;;7.07;;
9997;SDS011;5038;53.064;8.624;2023-02-03T11:13:31;19.87;;;7.03;;
9997;SDS011;5038;53.064;8.624;2023-02-03T11:16:00;15.67;;;5.27;;
9997;SDS011;5038;53.064;8.624;2023-02-03T11:21:22;20.50;;;6.93;;
9997;SDS011;5038;53.064;8.624;2023-02-03T11:23:54;22.07;;;7.07;;
9997;SDS011;5038;53.064;8.624;2023-02-03T11:26:27;21.93;;;6.30;;
9997;SDS011;5038;53.064;8.624;2023-02-03T11:28:59;21.90;;;7.30;;
9997;SDS011;5038;53.064;8.624;2023-02-03T11:31:29;17.53;;;5.90;;
9997;SDS011;5038;53.064;8.624;2023-02-03T11:34:02;19.43;;;5.80;;
9997;SDS011;5038;53.064;8.624;2023-02-03T11:36:33;20.10;;;6.93;;
9997;SDS011;5038;53.064;8.624;2023-02-03T11:39:07;17.80;;;6.20;;
9997;SDS011;5038;53.064;8.624;2023-02-03T11:41:37;20.87;;;6.37;;
9997;SDS011;5038;53.064;8.624;2023-02-03T11:44:10;20.00;;;6.70;;
9997;SDS011;5038;53.064;8.624;2023-02-03T11:46:39;17.20;;;5.77;;
9997;SDS011;5038;53.064;8.624;2023-02-03T11:49:12;21.93;;;7.27;;
9997;SDS011;5038;53.064;8.624;2023-02-03T11:51:56;20.23;;;6.43;;
9997;SDS011;5038;53.064;8.624;2023-02-03T11:54:32;20.03;;;6.67;;
9997;SDS011;5038;53.064;8.624;2023-02-03T11:57:17;20.17;;;6.40;;
9997;SDS011;5038;53.064;8.624;2023-02-03T11:59:59;21.20;;;6.43;;
9997;SDS011;5038;53.064;8.624;2023-02-03T12:02:58;16.03;;;6.17;;
9997;SDS011;5038;53.064;8.624;2023-02-03T12:05:58;22.03;;;6.63;;
9997;SDS011;5038;53.064;8.624;2023-02-03T12:08:56;29.23;;;7.60;;
9997;SDS011;5038;53.064;8.624;2023-02-03T12:11:38;20.47;;;6.67;;
9997;SDS011;5038;53.064;8.624;2023-02-03T12:14:30;23.00;;;5.93;;
9997;SDS011;5038;53.064;8.624;2023-02-03T12:17:14;18.80;;;5.53;;
9997;SDS011;5038;53.064;8.624;2023-02-03T12:20:11;20.40;;;5.30;;
9997;SDS011;5038;53.064;8.624;2023-02-03T12:22:53;19.33;;;6.37;;
9997;SDS011;5038;53.064;8.624;2023-02-03T12:25:29;17.83;;;5.00;;
9997;SDS011;5038;53.064;8.624;2023-02-03T12:28:07;14.70;;;5.37;;
9997;SDS011;5038;53.064;8.624;2023-02-03T12:30:59;26.87;;;6.10;;
9997;SDS011;5038;53.064;8.624;2023-02-03T12:33:35;19.37;;;6.17;;
9997;SDS011;5038;53.064;8.624;2023-02-03T12:36:10;16.10;;;5.80;;
9997;SDS011;5038;53.064;8.624;2023-02-03T12:38:45;16.43;;;6.80;;
9997;SDS011;5038;53.064;8.624;2023-02-03T12:41:19;17.90;;;6.50;;
9997;SDS011;5038;53.064;8.624;2023-02-03T12:43:53;15.33;;;5.10;;
9997;SDS011;5038;53.064;8.624;2023-02-03T12:46:26;24.60;;;6.87;;
9997;SDS011;5038;53.064;8.624;2023-02-03T12:48:58;20.90;;;6.20;;
9997;SDS011;5038;53.064;8.624;2023-02-03T12:51:33;15.33;;;5.40;;
9997;SDS011;5038;53.064;8.624;2023-02-03T12:54:10;15.77;;;5.27;;
9997;SDS011;5038;53.064;8.624;2023-02-03T12:56:52;19.00;;;5.07;;
9997;SDS011;5038;53.064;8.624;2023-02-03T12:59:24;16.13;;;5.43;;
9997;SDS011;5038;53.064;8.624;2023-02-03T13:01:57;20.83;;;5.60;;
9997;SDS011;5038;53.064;8.624;2023-02-03T13:04:28;14.10;;;4.90;;
9997;SDS011;5038;53.064;8.624;2023-02-03T13:07:07;16.90;;;5.37;;
9997;SDS011;5038;53.064;8.624;2023-02-03T13:09:46;21.30;;;6.07;;
9997;SDS011;5038;53.064;8.624;2023-02-03T13:12:22;18.90;;;6.17;;
9997;SDS011;5038;53.064;8.624;2023-02-03T13:14:56;16.23;;;5.43;;
9997;SDS011;5038;53.064;8.624;2023-02-03T13:17:33;18.27;;;5.47;;
9997;SDS011;5038;53.064;8.624;2023-02-03T13:20:13;20.13;;;6.20;;
9997;SDS011;5038;53.064;8.624;2023-02-03T13:22:45;18.00;;;5.60;;
9997;SDS011;5038;53.064;8.624;2023-02-03T13:25:16;22.70;;;6.70;;
9997;SDS011;5038;53.064;8.624;2023-02-03T13:27:50;17.53;;;6.40;;
9997;SDS011;5038;53.064;8.624;2023-02-03T13:30:36;21.80;;;7.13;;
9997;SDS011;5038;53.064;8.624;2023-02-03T13:33:23;20.23;;;6.17;;
9997;SDS011;5038;53.064;8.624;2023-02-03T13:36:22;17.30;;;6.03;;
9997;SDS011;5038;53.064;8.624;2023-02-03T13:39:14;19.37;;;7.10;;
9997;SDS011;5038;53.064;8.624;2023-02-03T13:42:09;19.53;;;6.23;;
9997;SDS011;5038;53.064;8.624;2023-02-03T13:44:46;14.93;;;5.20;;
9997;SDS011;5038;53.064;8.624;2023-02-03T13:47:17;17.60;;;5.30;;
9997;SDS011;5038;53.064;8.624;2023-02-03T13:49:51;18.53;;;6.27;;
9997;SDS011;5038;53.064;8.624;2023-02-03T13:52:22;16.90;;;5.70;;
9997;SDS011;5038;53.064;8.624;2023-02-03T13:54:59;18.70;;;5.87;;
9997;SDS011;5038;53.064;8.624;2023-02-03T13:57:30;21.93;;;6.33;;
9997;SDS011;5038;53.064;8.624;2023-02-03T14:00:01;17.30;;;5.70;;
9997;SDS011;5038;53.064;8.624;2023-02-03T14:02:43;19.30;;;5.40;;
9997;SDS011;5038;53.064;8.624;2023-02-03T14:23:33;14.90;;;6.60;;
9997;SDS011;5038;53.064;8.624;2023-02-03T14:26:13;13.93;;;4.63;;
9997;SDS011;5038;53.064;8.624;2023-02-03T14:28:50;22.83;;;5.80;;
9997;SDS011;5038;53.064;8.624;2023-02-03T14:31:20;15.90;;;5.57;;
9997;SDS011;5038;53.064;8.624;2023-02-03T14:33:55;18.60;;;5.43;;
9997;SDS011;5038;53.064;8.624;2023-02-03T14:42:22;23.20;;;6.40;;
9997;SDS011;5038;53.064;8.624;2023-02-03T14:45:09;14.47;;;6.20;;
9997;SDS011;5038;53.064;8.624;2023-02-03T14:47:51;18.13;;;5.93;;
9997;SDS011;5038;53.064;8.624;2023-02-03T14:50:31;20.90;;;6.50;;
9997;SDS011;5038;53.064;8.624;2023-02-03T14:53:17;26.23;;;6.43;;
9997;SDS011;5038;53.064;8.624;2023-02-03T14:56:04;21.60;;;6.57;;
9997;SDS011;5038;53.064;8.624;2023-02-03T14:58:44;22.00;;;6.00;;
9997;SDS011;5038;53.064;8.624;2023-02-03T15:01:24;15.07;;;6.00;;
9997;SDS011;5038;53.064;8.624;2023-02-03T15:04:21;18.90;;;6.60;;
9997;SDS011;5038;53.064;8.624;2023-02-03T15:06:51;17.00;;;5.60;;
9997;SDS011;5038;53.064;8.624;2023-02-03T15:09:21;21.30;;;6.10;;
9997;SDS011;5038;53.064;8.624;2023-02-03T15:11:54;15.97;;;6.27;;
9997;SDS011;5038;53.064;8.624;2023-02-03T15:14:23;18.50;;;5.97;;
9997;SDS011;5038;53.064;8.624;2023-02-03T15:16:54;16.40;;;5.93;;
9997;SDS011;5038;53.064;8.624;2023-02-03T15:19:26;15.83;;;5.57;;
9997;SDS011;5038;53.064;8.624;2023-02-03T15:21:56;18.30;;;5.97;;
9997;SDS011;5038;53.064;8.624;2023-02-03T15:24:24;22.50;;;6.57;;
9997;SDS011;5038;53.064;8.624;2023-02-03T15:26:53;23.37;;;7.00;;
9997;SDS011;5038;53.064;8.624;2023-02-03T15:29:23;17.77;;;6.20;;
9997;SDS011;5038;53.064;8.624;2023-02-03T15:31:56;19.37;;;6.03;;
9997;SDS011;5038;53.064;8.624;2023-02-03T15:34:35;23.47;;;6.60;;
9997;SDS011;5038;53.064;8.624;2023-02-03T15:37:07;25.33;;;8.20;;
9997;SDS011;5038;53.064;8.624;2023-02-03T15:39:43;22.20;;;8.10;;
9997;SDS011;5038;53.064;8.624;2023-02-03T15:42:19;18.13;;;5.73;;
9997;SDS011;5038;53.064;8.624;2023-02-03T15:44:52;24.93;;;6.50;;
9997;SDS011;5038;53.064;8.624;2023-02-03T15:47:25;25.60;;;7.50;;
9997;SDS011;5038;53.064;8.624;2023-02-03T15:50:00;20.10;;;7.17;;
9997;SDS011;5038;53.064;8.624;2023-02-03T15:52:33;25.10;;;8.30;;
9997;SDS011;5038;53.064;8.624;2023-02-03T15:55:08;18.47;;;6.97;;
9997;SDS011;5038;53.064;8.624;2023-02-03T15:57:44;25.90;;;8.87;;
9997;SDS011;5038;53.064;8.624;2023-02-03T16:03:13;20.43;;;7.30;;
9997;SDS011;5038;53.064;8.624;2023-02-03T16:05:46;24.63;;;8.13;;
9997;SDS011;5038;53.064;8.624;2023-02-03T16:08:33;28.83;;;8.20;;
9997;SDS011;5038;53.064;8.624;2023-02-03T16:11:19;24.37;;;8.77;;